PWSweather.com
Personal Weather Stations
Station Observations
WD4JKH
Forsyth, GA 31029

Forsyth, GA 31029

Lat: 33.033225, Lon: -83.927995

Elevation: 709

Station Type: Davis Vantage VUE

High Low Average
Temperature 78.9°F26.1°C 65.4°F18.6°C 70.6°F21.4°C
Dew Point 67.9°F19.9°C 59.5°F15.3°C 64.8°F18.2°C
Winds 7.7 mph 12.4 kmh Calm Calm 3.0 mph WSW4.8 kmh WSW
Wind Gusts 16.0 mph25.7 kmh 4.0 mph6.4 kmh 10.0 mph16.1 kmh
Humidity 98% 61% 83%
Pressure 29.88 in1011.9 mb 29.74 in1007.1 mb -
Precipitation 0.16 in4.1 mm - -
Hour Temp Dew Point Humidity Winds Wind Gusts Pressure Precip Precip Rate Daily Precip Total
12:00 AM 66.7°F19.3°C 65.8°F18.8°C 97% 2.1 mph S3.4 kmh S 7.0 mph11.3 kmh 29.77 in1008.1 mb 0.00 in0.0 mm 0.00 in0.0 mm 1.01 in25.7 mm
12:05 AM 66.6°F19.2°C 65.7°F18.7°C 97% 1.8 mph S2.9 kmh S 5.0 mph8.0 kmh 29.77 in1008.1 mb 0.00 in0.0 mm 0.00 in0.0 mm 0.00 in0.0 mm
12:10 AM 66.6°F19.2°C 65.7°F18.7°C 97% 2.2 mph S3.5 kmh S 5.0 mph8.0 kmh 29.77 in1008.1 mb 0.00 in0.0 mm 0.00 in0.0 mm 0.00 in0.0 mm
12:15 AM 66.6°F19.2°C 65.7°F18.7°C 97% 1.8 mph SW2.9 kmh SW 5.0 mph8.0 kmh 29.77 in1008.1 mb 0.00 in0.0 mm 0.00 in0.0 mm 0.00 in0.0 mm
12:20 AM 66.6°F19.2°C 65.7°F18.7°C 97% 2.0 mph SSW3.2 kmh SSW 5.0 mph8.0 kmh 29.77 in1008.1 mb 0.00 in0.0 mm 0.00 in0.0 mm 0.00 in0.0 mm
12:25 AM 66.6°F19.2°C 65.7°F18.7°C 97% 1.8 mph SSW2.9 kmh SSW 5.0 mph8.0 kmh 29.77 in1008.1 mb 0.00 in0.0 mm 0.00 in0.0 mm 0.00 in0.0 mm
12:30 AM 66.6°F19.2°C 65.7°F18.7°C 97% 1.6 mph SW2.6 kmh SW 5.0 mph8.0 kmh 29.77 in1008.1 mb 0.00 in0.0 mm 0.00 in0.0 mm 0.00 in0.0 mm
12:35 AM 66.6°F19.2°C 65.7°F18.7°C 97% 1.0 mph S1.6 kmh S 5.0 mph8.0 kmh 29.78 in1008.5 mb 0.00 in0.0 mm 0.00 in0.0 mm 0.00 in0.0 mm
12:40 AM 66.6°F19.2°C 65.7°F18.7°C 97% 1.9 mph SE3.1 kmh SE 5.0 mph8.0 kmh 29.78 in1008.5 mb 0.00 in0.0 mm 0.00 in0.0 mm 0.00 in0.0 mm
12:45 AM 66.7°F19.3°C 65.8°F18.8°C 97% 1.5 mph SW2.4 kmh SW 6.0 mph9.7 kmh 29.78 in1008.5 mb 0.00 in0.0 mm 0.00 in0.0 mm 0.00 in0.0 mm
12:50 AM 66.7°F19.3°C 65.8°F18.8°C 97% 1.5 mph SW2.4 kmh SW 6.0 mph9.7 kmh 29.78 in1008.5 mb 0.00 in0.0 mm 0.00 in0.0 mm 0.00 in0.0 mm
12:55 AM 66.8°F19.3°C 65.9°F18.8°C 97% 1.0 mph SE1.6 kmh SE 7.0 mph11.3 kmh 29.78 in1008.5 mb 0.00 in0.0 mm 0.00 in0.0 mm 0.00 in0.0 mm
01:00 AM 66.8°F19.3°C 65.9°F18.8°C 97% 1.7 mph SSW2.7 kmh SSW 7.0 mph11.3 kmh 29.77 in1008.1 mb 0.00 in0.0 mm 0.00 in0.0 mm 0.00 in0.0 mm
01:04 AM 66.8°F19.3°C 65.9°F18.8°C 97% 2.7 mph SSW4.3 kmh SSW 8.0 mph12.9 kmh 29.77 in1008.1 mb 0.00 in0.0 mm 0.00 in0.0 mm 0.00 in0.0 mm
01:09 AM 66.8°F19.3°C 65.9°F18.8°C 97% 3.7 mph SW6.0 kmh SW 8.0 mph12.9 kmh 29.77 in1008.1 mb 0.00 in0.0 mm 0.00 in0.0 mm 0.00 in0.0 mm
01:14 AM 66.8°F19.3°C 65.9°F18.8°C 97% 1.1 mph SE1.8 kmh SE 8.0 mph12.9 kmh 29.77 in1008.1 mb 0.00 in0.0 mm 0.00 in0.0 mm 0.00 in0.0 mm
01:19 AM 66.8°F19.3°C 65.9°F18.8°C 97% 1.1 mph SW1.8 kmh SW 8.0 mph12.9 kmh 29.77 in1008.1 mb 0.00 in0.0 mm 0.00 in0.0 mm 0.00 in0.0 mm
01:24 AM 66.8°F19.3°C 65.9°F18.8°C 97% 1.6 mph S2.6 kmh S 5.0 mph8.0 kmh 29.77 in1008.1 mb 0.00 in0.0 mm 0.00 in0.0 mm 0.00 in0.0 mm
01:29 AM 66.8°F19.3°C 65.9°F18.8°C 97% 2.1 mph SW3.4 kmh SW 4.0 mph6.4 kmh 29.76 in1007.8 mb 0.00 in0.0 mm 0.00 in0.0 mm 0.00 in0.0 mm
01:34 AM 66.7°F19.3°C 65.8°F18.8°C 97% 2.1 mph SSW3.4 kmh SSW 5.0 mph8.0 kmh 29.77 in1008.1 mb 0.00 in0.0 mm 0.00 in0.0 mm 0.00 in0.0 mm
01:39 AM 66.7°F19.3°C 65.8°F18.8°C 97% 1.9 mph SW3.1 kmh SW 6.0 mph9.7 kmh 29.77 in1008.1 mb 0.00 in0.0 mm 0.00 in0.0 mm 0.00 in0.0 mm
01:44 AM 66.7°F19.3°C 65.8°F18.8°C 97% 2.6 mph SW4.2 kmh SW 6.0 mph9.7 kmh 29.77 in1008.1 mb 0.00 in0.0 mm 0.00 in0.0 mm 0.00 in0.0 mm
01:49 AM 66.7°F19.3°C 65.8°F18.8°C 97% 1.5 mph SW2.4 kmh SW 6.0 mph9.7 kmh 29.77 in1008.1 mb 0.00 in0.0 mm 0.00 in0.0 mm 0.00 in0.0 mm
01:54 AM 66.7°F19.3°C 65.8°F18.8°C 97% 2.3 mph SW3.7 kmh SW 8.0 mph12.9 kmh 29.77 in1008.1 mb 0.00 in0.0 mm 0.00 in0.0 mm 0.00 in0.0 mm
01:59 AM 66.8°F19.3°C 65.9°F18.8°C 97% 2.0 mph S3.2 kmh S 8.0 mph12.9 kmh 29.77 in1008.1 mb 0.00 in0.0 mm 0.00 in0.0 mm 0.00 in0.0 mm
02:04 AM 66.8°F19.3°C 66.2°F19.0°C 98% 2.2 mph SSW3.5 kmh SSW 8.0 mph12.9 kmh 29.77 in1008.1 mb 0.00 in0.0 mm 0.00 in0.0 mm 0.00 in0.0 mm
02:09 AM 66.8°F19.3°C 66.2°F19.0°C 98% 3.3 mph SSW5.3 kmh SSW 12.0 mph19.3 kmh 29.76 in1007.8 mb 0.00 in0.0 mm 0.00 in0.0 mm 0.00 in0.0 mm
02:14 AM 66.7°F19.3°C 65.8°F18.8°C 97% 2.5 mph SW4.0 kmh SW 12.0 mph19.3 kmh 29.76 in1007.8 mb 0.00 in0.0 mm 0.00 in0.0 mm 0.00 in0.0 mm
02:19 AM 66.7°F19.3°C 65.8°F18.8°C 97% 2.3 mph SW3.7 kmh SW 12.0 mph19.3 kmh 29.76 in1007.8 mb 0.00 in0.0 mm 0.00 in0.0 mm 0.00 in0.0 mm
02:24 AM 66.7°F19.3°C 65.8°F18.8°C 97% 3.0 mph SW4.8 kmh SW 12.0 mph19.3 kmh 29.76 in1007.8 mb 0.00 in0.0 mm 0.00 in0.0 mm 0.00 in0.0 mm
02:29 AM 66.7°F19.3°C 65.8°F18.8°C 97% 1.9 mph SW3.1 kmh SW 12.0 mph19.3 kmh 29.76 in1007.8 mb 0.00 in0.0 mm 0.00 in0.0 mm 0.00 in0.0 mm
02:34 AM 66.6°F19.2°C 65.7°F18.7°C 97% 1.7 mph SW2.7 kmh SW 12.0 mph19.3 kmh 29.76 in1007.8 mb 0.00 in0.0 mm 0.00 in0.0 mm 0.00 in0.0 mm
02:39 AM 66.6°F19.2°C 65.7°F18.7°C 97% 1.8 mph SSW2.9 kmh SSW 12.0 mph19.3 kmh 29.76 in1007.8 mb 0.00 in0.0 mm 0.00 in0.0 mm 0.00 in0.0 mm
02:44 AM 66.5°F19.2°C 65.6°F18.7°C 97% 4.2 mph SW6.8 kmh SW 12.0 mph19.3 kmh 29.76 in1007.8 mb 0.00 in0.0 mm 0.00 in0.0 mm 0.00 in0.0 mm
02:49 AM 66.5°F19.2°C 65.6°F18.7°C 97% 3.8 mph SW6.1 kmh SW 12.0 mph19.3 kmh 29.76 in1007.8 mb 0.00 in0.0 mm 0.00 in0.0 mm 0.00 in0.0 mm
02:54 AM 66.5°F19.2°C 65.6°F18.7°C 97% 2.7 mph SSW4.3 kmh SSW 12.0 mph19.3 kmh 29.76 in1007.8 mb 0.00 in0.0 mm 0.00 in0.0 mm 0.00 in0.0 mm
02:59 AM 66.5°F19.2°C 65.6°F18.7°C 97% 2.3 mph SW3.7 kmh SW 12.0 mph19.3 kmh 29.75 in1007.5 mb 0.00 in0.0 mm 0.00 in0.0 mm 0.00 in0.0 mm
03:04 AM 66.4°F19.1°C 65.5°F18.6°C 97% 2.3 mph SW3.7 kmh SW 12.0 mph19.3 kmh 29.75 in1007.5 mb 0.00 in0.0 mm 0.00 in0.0 mm 0.00 in0.0 mm
03:09 AM 66.3°F19.1°C 65.4°F18.6°C 97% 2.4 mph SW3.9 kmh SW 8.0 mph12.9 kmh 29.75 in1007.5 mb 0.00 in0.0 mm 0.00 in0.0 mm 0.00 in0.0 mm
03:14 AM 66.3°F19.1°C 65.4°F18.6°C 97% 3.3 mph SW5.3 kmh SW 12.0 mph19.3 kmh 29.75 in1007.5 mb 0.00 in0.0 mm 0.00 in0.0 mm 0.00 in0.0 mm
03:19 AM 66.2°F19.0°C 65.3°F18.5°C 97% 2.9 mph SW4.7 kmh SW 12.0 mph19.3 kmh 29.74 in1007.1 mb 0.00 in0.0 mm 0.00 in0.0 mm 0.00 in0.0 mm
03:24 AM 66.2°F19.0°C 65.3°F18.5°C 97% 3.8 mph SW6.1 kmh SW 12.0 mph19.3 kmh 29.74 in1007.1 mb 0.00 in0.0 mm 0.00 in0.0 mm 0.00 in0.0 mm
03:29 AM 66.2°F19.0°C 65.3°F18.5°C 97% 1.8 mph WSW2.9 kmh WSW 12.0 mph19.3 kmh 29.74 in1007.1 mb 0.00 in0.0 mm 0.00 in0.0 mm 0.00 in0.0 mm
03:34 AM 66.2°F19.0°C 65.3°F18.5°C 97% 2.1 mph SSW3.4 kmh SSW 9.0 mph14.5 kmh 29.75 in1007.5 mb 0.00 in0.0 mm 0.00 in0.0 mm 0.00 in0.0 mm
03:39 AM 66.2°F19.0°C 65.3°F18.5°C 97% 1.1 mph SSW1.8 kmh SSW 9.0 mph14.5 kmh 29.75 in1007.5 mb 0.00 in0.0 mm 0.00 in0.0 mm 0.00 in0.0 mm
03:44 AM 66.2°F19.0°C 65.3°F18.5°C 97% 3.6 mph SW5.8 kmh SW 9.0 mph14.5 kmh 29.75 in1007.5 mb 0.00 in0.0 mm 0.00 in0.0 mm 0.00 in0.0 mm
03:49 AM 66.2°F19.0°C 65.3°F18.5°C 97% 1.9 mph SW3.1 kmh SW 9.0 mph14.5 kmh 29.75 in1007.5 mb 0.00 in0.0 mm 0.00 in0.0 mm 0.00 in0.0 mm
03:54 AM 66.2°F19.0°C 65.3°F18.5°C 97% 2.9 mph SW4.7 kmh SW 9.0 mph14.5 kmh 29.75 in1007.5 mb 0.00 in0.0 mm 0.00 in0.0 mm 0.00 in0.0 mm
03:59 AM 66.1°F18.9°C 65.2°F18.4°C 97% 2.5 mph SW4.0 kmh SW 9.0 mph14.5 kmh 29.75 in1007.5 mb 0.00 in0.0 mm 0.00 in0.0 mm 0.00 in0.0 mm
04:04 AM 66.1°F18.9°C 65.2°F18.4°C 97% 7.7 mph SW12.4 kmh SW 10.0 mph16.1 kmh 29.75 in1007.5 mb 0.00 in0.0 mm 0.00 in0.0 mm 0.00 in0.0 mm
04:09 AM 66.1°F18.9°C 65.2°F18.4°C 97% 1.3 mph SSW2.1 kmh SSW 10.0 mph16.1 kmh 29.74 in1007.1 mb 0.00 in0.0 mm 0.00 in0.0 mm 0.00 in0.0 mm
04:14 AM 66.1°F18.9°C 65.2°F18.4°C 97% 4.0 mph SW6.4 kmh SW 11.0 mph17.7 kmh 29.74 in1007.1 mb 0.00 in0.0 mm 0.00 in0.0 mm 0.00 in0.0 mm
04:19 AM 66.2°F19.0°C 65.3°F18.5°C 97% Calm Calm 11.0 mph17.7 kmh 29.74 in1007.1 mb 0.00 in0.0 mm 0.00 in0.0 mm 0.00 in0.0 mm
04:24 AM 66.2°F19.0°C 65.3°F18.5°C 97% 2.8 mph SW4.5 kmh SW 11.0 mph17.7 kmh 29.74 in1007.1 mb 0.00 in0.0 mm 0.00 in0.0 mm 0.00 in0.0 mm
04:29 AM 66.2°F19.0°C 65.3°F18.5°C 97% 2.8 mph SW4.5 kmh SW 11.0 mph17.7 kmh 29.75 in1007.5 mb 0.00 in0.0 mm 0.00 in0.0 mm 0.00 in0.0 mm
04:34 AM 66.2°F19.0°C 65.3°F18.5°C 97% 5.6 mph SW9.0 kmh SW 14.0 mph22.5 kmh 29.75 in1007.5 mb 0.00 in0.0 mm 0.00 in0.0 mm 0.00 in0.0 mm
04:39 AM 66.2°F19.0°C 65.3°F18.5°C 97% 4.5 mph SW7.2 kmh SW 14.0 mph22.5 kmh 29.75 in1007.5 mb 0.00 in0.0 mm 0.00 in0.0 mm 0.00 in0.0 mm
04:44 AM 66.2°F19.0°C 65.3°F18.5°C 97% 1.8 mph SW2.9 kmh SW 14.0 mph22.5 kmh 29.75 in1007.5 mb 0.00 in0.0 mm 0.00 in0.0 mm 0.00 in0.0 mm
04:49 AM 66.2°F19.0°C 65.3°F18.5°C 97% 3.6 mph SW5.8 kmh SW 14.0 mph22.5 kmh 29.75 in1007.5 mb 0.00 in0.0 mm 0.00 in0.0 mm 0.00 in0.0 mm
04:54 AM 66.2°F19.0°C 65.3°F18.5°C 97% 3.0 mph SW4.8 kmh SW 14.0 mph22.5 kmh 29.74 in1007.1 mb 0.00 in0.0 mm 0.00 in0.0 mm 0.00 in0.0 mm
04:59 AM 66.1°F18.9°C 65.2°F18.4°C 97% 1.2 mph S1.9 kmh S 9.0 mph14.5 kmh 29.74 in1007.1 mb 0.00 in0.0 mm 0.00 in0.0 mm 0.00 in0.0 mm
05:04 AM 66.1°F18.9°C 65.2°F18.4°C 97% 2.0 mph SW3.2 kmh SW 11.0 mph17.7 kmh 29.75 in1007.5 mb 0.00 in0.0 mm 0.00 in0.0 mm 0.00 in0.0 mm
05:10 AM 66.1°F18.9°C 65.2°F18.4°C 97% 3.4 mph SW5.5 kmh SW 11.0 mph17.7 kmh 29.74 in1007.1 mb 0.00 in0.0 mm 0.00 in0.0 mm 0.00 in0.0 mm
05:15 AM 66.1°F18.9°C 65.2°F18.4°C 97% 2.5 mph SW4.0 kmh SW 11.0 mph17.7 kmh 29.74 in1007.1 mb 0.00 in0.0 mm 0.00 in0.0 mm 0.00 in0.0 mm
05:20 AM 66.0°F18.9°C 65.1°F18.4°C 97% 3.9 mph SSW6.3 kmh SSW 11.0 mph17.7 kmh 29.74 in1007.1 mb 0.00 in0.0 mm 0.00 in0.0 mm 0.00 in0.0 mm
05:25 AM 66.0°F18.9°C 65.1°F18.4°C 97% 3.9 mph SW6.3 kmh SW 11.0 mph17.7 kmh 29.74 in1007.1 mb 0.00 in0.0 mm 0.00 in0.0 mm 0.00 in0.0 mm
05:30 AM 66.0°F18.9°C 65.1°F18.4°C 97% 1.6 mph SW2.6 kmh SW 11.0 mph17.7 kmh 29.74 in1007.1 mb 0.00 in0.0 mm 0.00 in0.0 mm 0.00 in0.0 mm
05:35 AM 66.0°F18.9°C 65.1°F18.4°C 97% 4.6 mph SW7.4 kmh SW 14.0 mph22.5 kmh 29.74 in1007.1 mb 0.00 in0.0 mm 0.00 in0.0 mm 0.00 in0.0 mm
05:40 AM 66.0°F18.9°C 65.1°F18.4°C 97% 3.2 mph SW5.1 kmh SW 14.0 mph22.5 kmh 29.74 in1007.1 mb 0.00 in0.0 mm 0.00 in0.0 mm 0.00 in0.0 mm
05:45 AM 66.0°F18.9°C 65.1°F18.4°C 97% 3.0 mph SW4.8 kmh SW 14.0 mph22.5 kmh 29.74 in1007.1 mb 0.00 in0.0 mm 0.00 in0.0 mm 0.00 in0.0 mm
05:50 AM 66.0°F18.9°C 64.8°F18.2°C 96% 4.1 mph SW6.6 kmh SW 14.0 mph22.5 kmh 29.74 in1007.1 mb 0.00 in0.0 mm 0.00 in0.0 mm 0.00 in0.0 mm
05:55 AM 66.0°F18.9°C 64.8°F18.2°C 96% 3.9 mph SW6.3 kmh SW 12.0 mph19.3 kmh 29.74 in1007.1 mb 0.00 in0.0 mm 0.00 in0.0 mm 0.00 in0.0 mm
06:00 AM 66.1°F18.9°C 64.9°F18.3°C 96% 2.9 mph SSW4.7 kmh SSW 12.0 mph19.3 kmh 29.74 in1007.1 mb 0.00 in0.0 mm 0.00 in0.0 mm 0.00 in0.0 mm
06:05 AM 66.1°F18.9°C 64.9°F18.3°C 96% 2.5 mph SW4.0 kmh SW 12.0 mph19.3 kmh 29.74 in1007.1 mb 0.00 in0.0 mm 0.00 in0.0 mm 0.00 in0.0 mm
06:10 AM 66.1°F18.9°C 64.9°F18.3°C 96% 3.4 mph SW5.5 kmh SW 12.0 mph19.3 kmh 29.74 in1007.1 mb 0.00 in0.0 mm 0.00 in0.0 mm 0.00 in0.0 mm
06:15 AM 66.2°F19.0°C 65.0°F18.3°C 96% 2.8 mph SSW4.5 kmh SSW 10.0 mph16.1 kmh 29.74 in1007.1 mb 0.00 in0.0 mm 0.00 in0.0 mm 0.00 in0.0 mm
06:20 AM 66.2°F19.0°C 65.0°F18.3°C 96% 5.8 mph SW9.3 kmh SW 12.0 mph19.3 kmh 29.74 in1007.1 mb 0.00 in0.0 mm 0.00 in0.0 mm 0.00 in0.0 mm
06:25 AM 66.2°F19.0°C 65.0°F18.3°C 96% 3.2 mph SW5.1 kmh SW 12.0 mph19.3 kmh 29.74 in1007.1 mb 0.00 in0.0 mm 0.00 in0.0 mm 0.00 in0.0 mm
06:30 AM 66.2°F19.0°C 65.0°F18.3°C 96% 2.7 mph SW4.3 kmh SW 12.0 mph19.3 kmh 29.75 in1007.5 mb 0.00 in0.0 mm 0.00 in0.0 mm 0.00 in0.0 mm
06:35 AM 66.3°F19.1°C 65.1°F18.4°C 96% 5.0 mph SW8.0 kmh SW 12.0 mph19.3 kmh 29.75 in1007.5 mb 0.00 in0.0 mm 0.00 in0.0 mm 0.00 in0.0 mm
06:40 AM 66.3°F19.1°C 65.1°F18.4°C 96% 2.5 mph SW4.0 kmh SW 12.0 mph19.3 kmh 29.75 in1007.5 mb 0.00 in0.0 mm 0.00 in0.0 mm 0.00 in0.0 mm
06:45 AM 66.4°F19.1°C 65.2°F18.4°C 96% 2.7 mph SW4.3 kmh SW 13.0 mph20.9 kmh 29.75 in1007.5 mb 0.00 in0.0 mm 0.00 in0.0 mm 0.00 in0.0 mm
06:50 AM 66.3°F19.1°C 65.1°F18.4°C 96% 2.8 mph SW4.5 kmh SW 13.0 mph20.9 kmh 29.75 in1007.5 mb 0.00 in0.0 mm 0.00 in0.0 mm 0.00 in0.0 mm
06:55 AM 66.4°F19.1°C 65.2°F18.4°C 96% 2.7 mph SW4.3 kmh SW 13.0 mph20.9 kmh 29.75 in1007.5 mb 0.00 in0.0 mm 0.00 in0.0 mm 0.00 in0.0 mm
07:00 AM 66.4°F19.1°C 65.2°F18.4°C 96% 5.2 mph SW8.4 kmh SW 13.0 mph20.9 kmh 29.75 in1007.5 mb 0.00 in0.0 mm 0.00 in0.0 mm 0.00 in0.0 mm
07:03 AM 66.5°F19.2°C 65.3°F18.5°C 96% 3.9 mph SW6.3 kmh SW 13.0 mph20.9 kmh 29.75 in1007.5 mb 0.00 in0.0 mm 0.00 in0.0 mm 0.00 in0.0 mm
07:08 AM 66.5°F19.2°C 65.3°F18.5°C 96% 4.6 mph SW7.4 kmh SW 13.0 mph20.9 kmh 29.76 in1007.8 mb 0.00 in0.0 mm 0.00 in0.0 mm 0.00 in0.0 mm
07:13 AM 66.6°F19.2°C 65.4°F18.6°C 96% 4.3 mph SW6.9 kmh SW 13.0 mph20.9 kmh 29.76 in1007.8 mb 0.00 in0.0 mm 0.00 in0.0 mm 0.00 in0.0 mm
07:18 AM 66.6°F19.2°C 65.4°F18.6°C 96% 5.0 mph SW8.0 kmh SW 14.0 mph22.5 kmh 29.76 in1007.8 mb 0.00 in0.0 mm 0.00 in0.0 mm 0.00 in0.0 mm
07:23 AM 66.7°F19.3°C 65.2°F18.4°C 95% 5.0 mph SW8.0 kmh SW 14.0 mph22.5 kmh 29.76 in1007.8 mb 0.00 in0.0 mm 0.00 in0.0 mm 0.00 in0.0 mm
07:28 AM 66.7°F19.3°C 65.2°F18.4°C 95% 3.1 mph SW5.0 kmh SW 14.0 mph22.5 kmh 29.76 in1007.8 mb 0.00 in0.0 mm 0.00 in0.0 mm 0.00 in0.0 mm
07:33 AM 66.8°F19.3°C 65.3°F18.5°C 95% 5.2 mph SW8.4 kmh SW 14.0 mph22.5 kmh 29.76 in1007.8 mb 0.00 in0.0 mm 0.00 in0.0 mm 0.00 in0.0 mm
07:38 AM 66.9°F19.4°C 65.4°F18.6°C 95% 4.0 mph SW6.4 kmh SW 13.0 mph20.9 kmh 29.76 in1007.8 mb 0.00 in0.0 mm 0.00 in0.0 mm 0.00 in0.0 mm
07:44 AM 66.9°F19.4°C 65.4°F18.6°C 95% 3.0 mph SW4.8 kmh SW 11.0 mph17.7 kmh 29.77 in1008.1 mb 0.00 in0.0 mm 0.00 in0.0 mm 0.00 in0.0 mm
07:49 AM 66.9°F19.4°C 65.4°F18.6°C 95% 4.1 mph SW6.6 kmh SW 11.0 mph17.7 kmh 29.77 in1008.1 mb 0.00 in0.0 mm 0.00 in0.0 mm 0.00 in0.0 mm
07:54 AM 66.9°F19.4°C 65.4°F18.6°C 95% 2.9 mph SW4.7 kmh SW 13.0 mph20.9 kmh 29.77 in1008.1 mb 0.00 in0.0 mm 0.00 in0.0 mm 0.00 in0.0 mm
07:59 AM 66.9°F19.4°C 65.4°F18.6°C 95% 1.5 mph WSW2.4 kmh WSW 13.0 mph20.9 kmh 29.77 in1008.1 mb 0.01 in0.3 mm 0.12 in3.0 mm 0.01 in0.3 mm
08:04 AM 66.9°F19.4°C 65.4°F18.6°C 95% 2.3 mph W3.7 kmh W 13.0 mph20.9 kmh 29.78 in1008.5 mb 0.02 in0.5 mm 0.01 in0.3 mm 0.02 in0.5 mm
08:09 AM 66.8°F19.3°C 65.6°F18.7°C 96% 1.8 mph SW2.9 kmh SW 11.0 mph17.7 kmh 29.78 in1008.5 mb 0.03 in0.8 mm 0.12 in3.0 mm 0.03 in0.8 mm
08:13 AM 66.7°F19.3°C 65.5°F18.6°C 96% 1.4 mph WSW2.3 kmh WSW 7.0 mph11.3 kmh 29.78 in1008.5 mb 0.06 in1.5 mm 0.45 in11.4 mm 0.06 in1.5 mm
08:19 AM 66.6°F19.2°C 65.4°F18.6°C 96% 3.1 mph SW5.0 kmh SW 11.0 mph17.7 kmh 29.78 in1008.5 mb 0.07 in1.8 mm 0.10 in2.5 mm 0.07 in1.8 mm
08:24 AM 66.6°F19.2°C 65.4°F18.6°C 96% 2.4 mph WSW3.9 kmh WSW 11.0 mph17.7 kmh 29.78 in1008.5 mb 0.08 in2.0 mm 0.12 in3.0 mm 0.08 in2.0 mm
08:28 AM 66.4°F19.1°C 65.2°F18.4°C 96% 2.7 mph WSW4.3 kmh WSW 12.0 mph19.3 kmh 29.78 in1008.5 mb 0.09 in2.3 mm 0.15 in3.8 mm 0.09 in2.3 mm
08:34 AM 66.2°F19.0°C 65.0°F18.3°C 96% 2.7 mph SW4.3 kmh SW 12.0 mph19.3 kmh 29.78 in1008.5 mb 0.11 in2.8 mm 0.20 in5.1 mm 0.11 in2.8 mm
08:39 AM 66.1°F18.9°C 64.9°F18.3°C 96% 2.4 mph W3.9 kmh W 12.0 mph19.3 kmh 29.78 in1008.5 mb 0.12 in3.0 mm 0.12 in3.0 mm 0.12 in3.0 mm
08:44 AM 66.0°F18.9°C 64.8°F18.2°C 96% 5.2 mph SW8.4 kmh SW 12.0 mph19.3 kmh 29.78 in1008.5 mb 0.14 in3.6 mm 0.24 in6.1 mm 0.14 in3.6 mm
08:49 AM 66.2°F19.0°C 65.0°F18.3°C 96% 3.2 mph WSW5.1 kmh WSW 10.0 mph16.1 kmh 29.78 in1008.5 mb 0.14 in3.6 mm 0.00 in0.0 mm 0.14 in3.6 mm
08:54 AM 66.3°F19.1°C 65.1°F18.4°C 96% 2.3 mph WSW3.7 kmh WSW 10.0 mph16.1 kmh 29.78 in1008.5 mb 0.15 in3.8 mm 0.12 in3.0 mm 0.15 in3.8 mm
08:59 AM 66.4°F19.1°C 65.2°F18.4°C 96% 3.1 mph SW5.0 kmh SW 10.0 mph16.1 kmh 29.78 in1008.5 mb 0.14 in3.6 mm 0.00 in0.0 mm 0.15 in3.8 mm
09:04 AM 66.4°F19.1°C 65.2°F18.4°C 96% 3.4 mph WSW5.5 kmh WSW 10.0 mph16.1 kmh 29.78 in1008.5 mb 0.14 in3.6 mm 0.00 in0.0 mm 0.16 in4.1 mm
09:09 AM 66.4°F19.1°C 65.2°F18.4°C 96% 4.4 mph WSW7.1 kmh WSW 14.0 mph22.5 kmh 29.79 in1008.8 mb 0.13 in3.3 mm 0.00 in0.0 mm 0.16 in4.1 mm
09:14 AM 66.4°F19.1°C 65.2°F18.4°C 96% 2.9 mph SW4.7 kmh SW 14.0 mph22.5 kmh 29.79 in1008.8 mb 0.10 in2.5 mm 0.00 in0.0 mm 0.16 in4.1 mm
09:19 AM 66.4°F19.1°C 65.2°F18.4°C 96% 2.8 mph SW4.5 kmh SW 14.0 mph22.5 kmh 29.79 in1008.8 mb 0.09 in2.3 mm 0.00 in0.0 mm 0.16 in4.1 mm
09:24 AM 66.4°F19.1°C 65.2°F18.4°C 96% 3.1 mph SW5.0 kmh SW 11.0 mph17.7 kmh 29.79 in1008.8 mb 0.08 in2.0 mm 0.00 in0.0 mm 0.16 in4.1 mm
09:29 AM 66.4°F19.1°C 65.2°F18.4°C 96% 3.3 mph WSW5.3 kmh WSW 11.0 mph17.7 kmh 29.79 in1008.8 mb 0.07 in1.8 mm 0.00 in0.0 mm 0.16 in4.1 mm
09:34 AM 66.6°F19.2°C 65.4°F18.6°C 96% 2.8 mph SW4.5 kmh SW 9.0 mph14.5 kmh 29.79 in1008.8 mb 0.05 in1.3 mm 0.00 in0.0 mm 0.16 in4.1 mm
09:39 AM 66.6°F19.2°C 65.4°F18.6°C 96% 2.6 mph SW4.2 kmh SW 9.0 mph14.5 kmh 29.79 in1008.8 mb 0.04 in1.0 mm 0.00 in0.0 mm 0.16 in4.1 mm
09:44 AM 66.8°F19.3°C 65.6°F18.7°C 96% 1.3 mph WSW2.1 kmh WSW 9.0 mph14.5 kmh 29.79 in1008.8 mb 0.02 in0.5 mm 0.00 in0.0 mm 0.16 in4.1 mm
09:49 AM 66.9°F19.4°C 65.7°F18.7°C 96% 4.3 mph SW6.9 kmh SW 8.0 mph12.9 kmh 29.79 in1008.8 mb 0.02 in0.5 mm 0.00 in0.0 mm 0.16 in4.1 mm
09:54 AM 67.0°F19.4°C 66.1°F18.9°C 97% 1.0 mph WSW1.6 kmh WSW 8.0 mph12.9 kmh 29.80 in1009.1 mb 0.01 in0.3 mm 0.00 in0.0 mm 0.16 in4.1 mm
09:59 AM 67.2°F19.6°C 66.3°F19.1°C 97% 2.7 mph SW4.3 kmh SW 8.0 mph12.9 kmh 29.80 in1009.1 mb 0.01 in0.3 mm 0.00 in0.0 mm 0.16 in4.1 mm
10:04 AM 67.3°F19.6°C 66.1°F18.9°C 96% 2.7 mph SW4.3 kmh SW 8.0 mph12.9 kmh 29.80 in1009.1 mb 0.00 in0.0 mm 0.00 in0.0 mm 0.16 in4.1 mm
10:09 AM 67.8°F19.9°C 66.9°F19.4°C 97% 2.0 mph W3.2 kmh W 8.0 mph12.9 kmh 29.80 in1009.1 mb 0.00 in0.0 mm 0.00 in0.0 mm 0.16 in4.1 mm
10:14 AM 68.4°F20.2°C 67.5°F19.7°C 97% 2.1 mph WSW3.4 kmh WSW 8.0 mph12.9 kmh 29.80 in1009.1 mb 0.00 in0.0 mm 0.00 in0.0 mm 0.16 in4.1 mm
10:19 AM 68.6°F20.3°C 67.1°F19.5°C 95% 2.8 mph WSW4.5 kmh WSW 7.0 mph11.3 kmh 29.80 in1009.1 mb 0.00 in0.0 mm 0.00 in0.0 mm 0.16 in4.1 mm
10:24 AM 68.9°F20.5°C 67.4°F19.7°C 95% 1.7 mph WNW2.7 kmh WNW 7.0 mph11.3 kmh 29.80 in1009.1 mb 0.00 in0.0 mm 0.00 in0.0 mm 0.16 in4.1 mm
10:29 AM 69.0°F20.6°C 66.9°F19.4°C 93% 4.5 mph W7.2 kmh W 9.0 mph14.5 kmh 29.80 in1009.1 mb 0.00 in0.0 mm 0.00 in0.0 mm 0.16 in4.1 mm
10:34 AM 69.2°F20.7°C 66.1°F18.9°C 90% 6.3 mph WNW10.1 kmh WNW 11.0 mph17.7 kmh 29.80 in1009.1 mb 0.00 in0.0 mm 0.00 in0.0 mm 0.16 in4.1 mm
10:39 AM 68.9°F20.5°C 65.8°F18.8°C 90% 3.5 mph WNW5.6 kmh WNW 11.0 mph17.7 kmh 29.80 in1009.1 mb 0.00 in0.0 mm 0.00 in0.0 mm 0.16 in4.1 mm
10:44 AM 69.2°F20.7°C 66.1°F18.9°C 90% 4.2 mph W6.8 kmh W 11.0 mph17.7 kmh 29.80 in1009.1 mb 0.00 in0.0 mm 0.00 in0.0 mm 0.16 in4.1 mm
10:49 AM 69.7°F20.9°C 66.6°F19.2°C 90% 2.4 mph WNW3.9 kmh WNW 11.0 mph17.7 kmh 29.80 in1009.1 mb 0.00 in0.0 mm 0.00 in0.0 mm 0.16 in4.1 mm
10:54 AM 69.9°F21.1°C 65.9°F18.8°C 87% 4.5 mph W7.2 kmh W 10.0 mph16.1 kmh 29.80 in1009.1 mb 0.00 in0.0 mm 0.00 in0.0 mm 0.16 in4.1 mm
10:59 AM 69.7°F20.9°C 65.3°F18.5°C 86% 5.5 mph WNW8.9 kmh WNW 12.0 mph19.3 kmh 29.80 in1009.1 mb 0.00 in0.0 mm 0.00 in0.0 mm 0.16 in4.1 mm
11:04 AM 69.8°F21.0°C 65.8°F18.8°C 87% 4.2 mph NW6.8 kmh NW 13.0 mph20.9 kmh 29.80 in1009.1 mb 0.00 in0.0 mm 0.00 in0.0 mm 0.16 in4.1 mm
11:09 AM 69.9°F21.1°C 65.2°F18.4°C 85% 6.0 mph WNW9.7 kmh WNW 13.0 mph20.9 kmh 29.80 in1009.1 mb 0.00 in0.0 mm 0.00 in0.0 mm 0.16 in4.1 mm
11:14 AM 70.1°F21.2°C 65.4°F18.6°C 85% 3.7 mph WNW6.0 kmh WNW 13.0 mph20.9 kmh 29.81 in1009.5 mb 0.00 in0.0 mm 0.00 in0.0 mm 0.16 in4.1 mm
11:19 AM 70.2°F21.2°C 65.2°F18.4°C 84% 5.2 mph W8.4 kmh W 11.0 mph17.7 kmh 29.81 in1009.5 mb 0.00 in0.0 mm 0.00 in0.0 mm 0.16 in4.1 mm
11:24 AM 70.1°F21.2°C 65.4°F18.6°C 85% 4.0 mph W6.4 kmh W 11.0 mph17.7 kmh 29.81 in1009.5 mb 0.00 in0.0 mm 0.00 in0.0 mm 0.16 in4.1 mm
11:29 AM 70.3°F21.3°C 65.3°F18.5°C 84% 2.7 mph W4.3 kmh W 10.0 mph16.1 kmh 29.81 in1009.5 mb 0.00 in0.0 mm 0.00 in0.0 mm 0.16 in4.1 mm
11:34 AM 70.5°F21.4°C 65.5°F18.6°C 84% 2.1 mph WNW3.4 kmh WNW 10.0 mph16.1 kmh 29.81 in1009.5 mb 0.00 in0.0 mm 0.00 in0.0 mm 0.16 in4.1 mm
11:39 AM 70.7°F21.5°C 66.0°F18.9°C 85% 2.4 mph WSW3.9 kmh WSW 9.0 mph14.5 kmh 29.82 in1009.8 mb 0.00 in0.0 mm 0.00 in0.0 mm 0.16 in4.1 mm
11:44 AM 70.8°F21.6°C 65.4°F18.6°C 83% 5.0 mph WNW8.0 kmh WNW 9.0 mph14.5 kmh 29.82 in1009.8 mb 0.00 in0.0 mm 0.00 in0.0 mm 0.16 in4.1 mm
11:49 AM 71.0°F21.7°C 66.0°F18.9°C 84% 2.9 mph WSW4.7 kmh WSW 9.0 mph14.5 kmh 29.82 in1009.8 mb 0.00 in0.0 mm 0.00 in0.0 mm 0.16 in4.1 mm
11:54 AM 71.2°F21.8°C 65.5°F18.6°C 82% 4.4 mph WNW7.1 kmh WNW 9.0 mph14.5 kmh 29.82 in1009.8 mb 0.00 in0.0 mm 0.00 in0.0 mm 0.16 in4.1 mm
11:59 AM 71.3°F21.8°C 65.2°F18.4°C 81% 4.5 mph WNW7.2 kmh WNW 9.0 mph14.5 kmh 29.82 in1009.8 mb 0.00 in0.0 mm 0.00 in0.0 mm 0.16 in4.1 mm
12:03 PM 71.3°F21.8°C 65.5°F18.6°C 82% 3.4 mph W5.5 kmh W 9.0 mph14.5 kmh 29.82 in1009.8 mb 0.00 in0.0 mm 0.00 in0.0 mm 0.16 in4.1 mm
12:08 PM 71.5°F21.9°C 66.1°F18.9°C 83% 1.7 mph W2.7 kmh W 9.0 mph14.5 kmh 29.82 in1009.8 mb 0.00 in0.0 mm 0.00 in0.0 mm 0.16 in4.1 mm
12:13 PM 72.1°F22.3°C 66.0°F18.9°C 81% 2.7 mph W4.3 kmh W 9.0 mph14.5 kmh 29.82 in1009.8 mb 0.00 in0.0 mm 0.00 in0.0 mm 0.16 in4.1 mm
12:18 PM 72.4°F22.4°C 66.7°F19.3°C 82% 2.1 mph WNW3.4 kmh WNW 9.0 mph14.5 kmh 29.82 in1009.8 mb 0.00 in0.0 mm 0.00 in0.0 mm 0.16 in4.1 mm
12:23 PM 72.5°F22.5°C 66.1°F18.9°C 80% 2.2 mph WSW3.5 kmh WSW 9.0 mph14.5 kmh 29.81 in1009.5 mb 0.00 in0.0 mm 0.00 in0.0 mm 0.16 in4.1 mm
12:28 PM 72.3°F22.4°C 66.6°F19.2°C 82% 1.7 mph WNW2.7 kmh WNW 9.0 mph14.5 kmh 29.81 in1009.5 mb 0.00 in0.0 mm 0.00 in0.0 mm 0.16 in4.1 mm
12:33 PM 72.4°F22.4°C 66.3°F19.1°C 81% 4.7 mph W7.6 kmh W 9.0 mph14.5 kmh 29.81 in1009.5 mb 0.00 in0.0 mm 0.00 in0.0 mm 0.16 in4.1 mm
12:38 PM 72.6°F22.6°C 65.8°F18.8°C 79% 4.8 mph W7.7 kmh W 10.0 mph16.1 kmh 29.81 in1009.5 mb 0.00 in0.0 mm 0.00 in0.0 mm 0.16 in4.1 mm
12:43 PM 72.9°F22.7°C 66.1°F18.9°C 79% 3.7 mph W6.0 kmh W 10.0 mph16.1 kmh 29.81 in1009.5 mb 0.00 in0.0 mm 0.00 in0.0 mm 0.16 in4.1 mm
12:48 PM 72.8°F22.7°C 66.4°F19.1°C 80% 2.2 mph NW3.5 kmh NW 10.0 mph16.1 kmh 29.81 in1009.5 mb 0.00 in0.0 mm 0.00 in0.0 mm 0.16 in4.1 mm
12:53 PM 73.0°F22.8°C 65.8°F18.8°C 78% 5.1 mph WNW8.2 kmh WNW 10.0 mph16.1 kmh 29.81 in1009.5 mb 0.00 in0.0 mm 0.00 in0.0 mm 0.16 in4.1 mm
12:58 PM 72.5°F22.5°C 65.7°F18.7°C 79% 3.7 mph WNW6.0 kmh WNW 9.0 mph14.5 kmh 29.81 in1009.5 mb 0.00 in0.0 mm 0.00 in0.0 mm 0.16 in4.1 mm
01:03 PM 72.6°F22.6°C 66.9°F19.4°C 82% 2.0 mph WSW3.2 kmh WSW 9.0 mph14.5 kmh 29.81 in1009.5 mb 0.00 in0.0 mm 0.00 in0.0 mm 0.16 in4.1 mm
01:08 PM 72.6°F22.6°C 65.7°F18.7°C 79% 2.9 mph W4.7 kmh W 11.0 mph17.7 kmh 29.81 in1009.5 mb 0.00 in0.0 mm 0.00 in0.0 mm 0.16 in4.1 mm
01:13 PM 72.5°F22.5°C 66.1°F18.9°C 80% 3.5 mph W5.6 kmh W 11.0 mph17.7 kmh 29.81 in1009.5 mb 0.00 in0.0 mm 0.00 in0.0 mm 0.16 in4.1 mm
01:18 PM 72.2°F22.3°C 65.4°F18.6°C 79% 2.5 mph W4.0 kmh W 11.0 mph17.7 kmh 29.81 in1009.5 mb 0.00 in0.0 mm 0.00 in0.0 mm 0.16 in4.1 mm
01:23 PM 72.1°F22.3°C 66.0°F18.9°C 81% 2.6 mph WSW4.2 kmh WSW 11.0 mph17.7 kmh 29.81 in1009.5 mb 0.00 in0.0 mm 0.00 in0.0 mm 0.16 in4.1 mm
01:28 PM 72.9°F22.7°C 66.8°F19.3°C 81% 3.3 mph WSW5.3 kmh WSW 9.0 mph14.5 kmh 29.81 in1009.5 mb 0.00 in0.0 mm 0.00 in0.0 mm 0.16 in4.1 mm
01:33 PM 73.7°F23.2°C 66.9°F19.4°C 79% 3.5 mph WSW5.6 kmh WSW 11.0 mph17.7 kmh 29.81 in1009.5 mb 0.00 in0.0 mm 0.00 in0.0 mm 0.16 in4.1 mm
01:38 PM 74.4°F23.6°C 66.5°F19.2°C 76% 3.4 mph SW5.5 kmh SW 12.0 mph19.3 kmh 29.81 in1009.5 mb 0.00 in0.0 mm 0.00 in0.0 mm 0.16 in4.1 mm
01:43 PM 73.8°F23.2°C 65.9°F18.8°C 76% 2.1 mph SW3.4 kmh SW 12.0 mph19.3 kmh 29.81 in1009.5 mb 0.00 in0.0 mm 0.00 in0.0 mm 0.16 in4.1 mm
01:48 PM 73.7°F23.2°C 66.5°F19.2°C 78% 1.3 mph SW2.1 kmh SW 12.0 mph19.3 kmh 29.81 in1009.5 mb 0.00 in0.0 mm 0.00 in0.0 mm 0.16 in4.1 mm
01:53 PM 73.8°F23.2°C 66.3°F19.1°C 77% 4.4 mph SW7.1 kmh SW 12.0 mph19.3 kmh 29.81 in1009.5 mb 0.00 in0.0 mm 0.00 in0.0 mm 0.16 in4.1 mm
01:58 PM 74.2°F23.4°C 66.7°F19.3°C 77% 3.4 mph SW5.5 kmh SW 10.0 mph16.1 kmh 29.81 in1009.5 mb 0.00 in0.0 mm 0.00 in0.0 mm 0.16 in4.1 mm
02:03 PM 74.5°F23.6°C 66.2°F19.0°C 75% 5.0 mph WSW8.0 kmh WSW 12.0 mph19.3 kmh 29.80 in1009.1 mb 0.00 in0.0 mm 0.00 in0.0 mm 0.16 in4.1 mm
02:08 PM 74.7°F23.7°C 66.0°F18.9°C 74% 4.9 mph SW7.9 kmh SW 15.0 mph24.1 kmh 29.80 in1009.1 mb 0.00 in0.0 mm 0.00 in0.0 mm 0.16 in4.1 mm
02:13 PM 74.5°F23.6°C 66.6°F19.2°C 76% 3.6 mph SW5.8 kmh SW 15.0 mph24.1 kmh 29.80 in1009.1 mb 0.00 in0.0 mm 0.00 in0.0 mm 0.16 in4.1 mm
02:18 PM 74.8°F23.8°C 66.0°F18.9°C 74% 3.6 mph WSW5.8 kmh WSW 15.0 mph24.1 kmh 29.80 in1009.1 mb 0.00 in0.0 mm 0.00 in0.0 mm 0.16 in4.1 mm
02:23 PM 74.7°F23.7°C 66.8°F19.3°C 76% 1.3 mph SW2.1 kmh SW 14.0 mph22.5 kmh 29.79 in1008.8 mb 0.00 in0.0 mm 0.00 in0.0 mm 0.16 in4.1 mm
02:28 PM 74.9°F23.8°C 66.6°F19.2°C 75% 1.9 mph W3.1 kmh W 11.0 mph17.7 kmh 29.79 in1008.8 mb 0.00 in0.0 mm 0.00 in0.0 mm 0.16 in4.1 mm
02:33 PM 75.1°F23.9°C 67.0°F19.4°C 76% 3.0 mph WSW4.8 kmh WSW 11.0 mph17.7 kmh 29.79 in1008.8 mb 0.00 in0.0 mm 0.00 in0.0 mm 0.16 in4.1 mm
02:38 PM 74.5°F23.6°C 66.2°F19.0°C 75% 3.6 mph SW5.8 kmh SW 11.0 mph17.7 kmh 29.79 in1008.8 mb 0.00 in0.0 mm 0.00 in0.0 mm 0.16 in4.1 mm
02:43 PM 74.2°F23.4°C 65.9°F18.8°C 75% 3.8 mph W6.1 kmh W 12.0 mph19.3 kmh 29.79 in1008.8 mb 0.00 in0.0 mm 0.00 in0.0 mm 0.16 in4.1 mm
02:48 PM 74.4°F23.6°C 66.5°F19.2°C 76% 3.4 mph W5.5 kmh W 12.0 mph19.3 kmh 29.79 in1008.8 mb 0.00 in0.0 mm 0.00 in0.0 mm 0.16 in4.1 mm
02:53 PM 74.5°F23.6°C 66.2°F19.0°C 75% 4.7 mph W7.6 kmh W 12.0 mph19.3 kmh 29.79 in1008.8 mb 0.00 in0.0 mm 0.00 in0.0 mm 0.16 in4.1 mm
02:58 PM 74.7°F23.7°C 66.8°F19.3°C 76% 2.1 mph WSW3.4 kmh WSW 12.0 mph19.3 kmh 29.79 in1008.8 mb 0.00 in0.0 mm 0.00 in0.0 mm 0.16 in4.1 mm
03:03 PM 75.0°F23.9°C 67.1°F19.5°C 76% 2.6 mph SW4.2 kmh SW 11.0 mph17.7 kmh 29.78 in1008.5 mb 0.00 in0.0 mm 0.00 in0.0 mm 0.16 in4.1 mm
03:08 PM 75.6°F24.2°C 66.5°F19.2°C 73% 4.1 mph W6.6 kmh W 11.0 mph17.7 kmh 29.79 in1008.8 mb 0.00 in0.0 mm 0.00 in0.0 mm 0.16 in4.1 mm
03:13 PM 76.0°F24.4°C 67.7°F19.8°C 75% 2.1 mph WSW3.4 kmh WSW 13.0 mph20.9 kmh 29.79 in1008.8 mb 0.00 in0.0 mm 0.00 in0.0 mm 0.16 in4.1 mm
03:18 PM 76.4°F24.7°C 67.1°F19.5°C 73% 3.1 mph SW5.0 kmh SW 13.0 mph20.9 kmh 29.79 in1008.8 mb 0.00 in0.0 mm 0.00 in0.0 mm 0.16 in4.1 mm
03:23 PM 77.4°F25.2°C 67.9°F19.9°C 72% 3.5 mph W5.6 kmh W 13.0 mph20.9 kmh 29.78 in1008.5 mb 0.00 in0.0 mm 0.00 in0.0 mm 0.16 in4.1 mm
03:28 PM 76.5°F24.7°C 67.0°F19.4°C 72% 5.2 mph W8.4 kmh W 13.0 mph20.9 kmh 29.78 in1008.5 mb 0.00 in0.0 mm 0.00 in0.0 mm 0.16 in4.1 mm
03:33 PM 75.8°F24.3°C 67.1°F19.5°C 74% 3.1 mph W5.0 kmh W 13.0 mph20.9 kmh 29.78 in1008.5 mb 0.00 in0.0 mm 0.00 in0.0 mm 0.16 in4.1 mm
03:38 PM 75.4°F24.1°C 66.3°F19.1°C 73% 2.9 mph WSW4.7 kmh WSW 13.0 mph20.9 kmh 29.78 in1008.5 mb 0.00 in0.0 mm 0.00 in0.0 mm 0.16 in4.1 mm
03:43 PM 75.5°F24.2°C 66.8°F19.3°C 74% 2.0 mph W3.2 kmh W 13.0 mph20.9 kmh 29.78 in1008.5 mb 0.00 in0.0 mm 0.00 in0.0 mm 0.16 in4.1 mm
03:48 PM 75.3°F24.1°C 67.0°F19.4°C 75% 2.6 mph W4.2 kmh W 10.0 mph16.1 kmh 29.78 in1008.5 mb 0.00 in0.0 mm 0.00 in0.0 mm 0.16 in4.1 mm
03:53 PM 76.0°F24.4°C 67.3°F19.6°C 74% 3.5 mph WSW5.6 kmh WSW 10.0 mph16.1 kmh 29.78 in1008.5 mb 0.00 in0.0 mm 0.00 in0.0 mm 0.16 in4.1 mm
03:58 PM 76.1°F24.5°C 66.4°F19.1°C 72% 5.0 mph W8.0 kmh W 9.0 mph14.5 kmh 29.78 in1008.5 mb 0.00 in0.0 mm 0.00 in0.0 mm 0.16 in4.1 mm
04:03 PM 76.5°F24.7°C 67.0°F19.4°C 72% 2.8 mph WSW4.5 kmh WSW 9.0 mph14.5 kmh 29.78 in1008.5 mb 0.00 in0.0 mm 0.00 in0.0 mm 0.16 in4.1 mm
04:08 PM 76.6°F24.8°C 66.7°F19.3°C 71% 2.8 mph W4.5 kmh W 11.0 mph17.7 kmh 29.77 in1008.1 mb 0.00 in0.0 mm 0.00 in0.0 mm 0.16 in4.1 mm
04:13 PM 76.7°F24.8°C 65.6°F18.7°C 68% 5.1 mph WSW8.2 kmh WSW 11.0 mph17.7 kmh 29.77 in1008.1 mb 0.00 in0.0 mm 0.00 in0.0 mm 0.16 in4.1 mm
04:18 PM 77.3°F25.2°C 65.7°F18.7°C 67% 3.3 mph WNW5.3 kmh WNW 11.0 mph17.7 kmh 29.77 in1008.1 mb 0.00 in0.0 mm 0.00 in0.0 mm 0.16 in4.1 mm
04:23 PM 77.4°F25.2°C 65.8°F18.8°C 67% 1.6 mph W2.6 kmh W 12.0 mph19.3 kmh 29.77 in1008.1 mb 0.00 in0.0 mm 0.00 in0.0 mm 0.16 in4.1 mm
04:28 PM 77.4°F25.2°C 64.9°F18.3°C 65% 3.9 mph WNW6.3 kmh WNW 16.0 mph25.7 kmh 29.77 in1008.1 mb 0.00 in0.0 mm 0.00 in0.0 mm 0.16 in4.1 mm
04:33 PM 77.7°F25.4°C 64.5°F18.1°C 64% 3.6 mph W5.8 kmh W 16.0 mph25.7 kmh 29.76 in1007.8 mb 0.00 in0.0 mm 0.00 in0.0 mm 0.16 in4.1 mm
04:38 PM 78.4°F25.8°C 65.2°F18.4°C 64% 2.8 mph W4.5 kmh W 16.0 mph25.7 kmh 29.76 in1007.8 mb 0.00 in0.0 mm 0.00 in0.0 mm 0.16 in4.1 mm
04:43 PM 78.5°F25.8°C 66.0°F18.9°C 65% 4.9 mph WNW7.9 kmh WNW 16.0 mph25.7 kmh 29.76 in1007.8 mb 0.00 in0.0 mm 0.00 in0.0 mm 0.16 in4.1 mm
04:48 PM 77.9°F25.5°C 65.9°F18.8°C 66% 3.8 mph WSW6.1 kmh WSW 11.0 mph17.7 kmh 29.77 in1008.1 mb 0.00 in0.0 mm 0.00 in0.0 mm 0.16 in4.1 mm
04:53 PM 77.6°F25.3°C 65.1°F18.4°C 65% 5.1 mph WSW8.2 kmh WSW 11.0 mph17.7 kmh 29.76 in1007.8 mb 0.00 in0.0 mm 0.00 in0.0 mm 0.16 in4.1 mm
04:58 PM 78.0°F25.6°C 66.4°F19.1°C 67% 2.1 mph W3.4 kmh W 11.0 mph17.7 kmh 29.76 in1007.8 mb 0.00 in0.0 mm 0.00 in0.0 mm 0.16 in4.1 mm
05:02 PM 77.8°F25.4°C 64.9°F18.3°C 64% 3.2 mph WNW5.1 kmh WNW 12.0 mph19.3 kmh 29.76 in1007.8 mb 0.00 in0.0 mm 0.00 in0.0 mm 0.16 in4.1 mm
05:07 PM 77.9°F25.5°C 65.9°F18.8°C 66% 2.4 mph WSW3.9 kmh WSW 12.0 mph19.3 kmh 29.76 in1007.8 mb 0.00 in0.0 mm 0.00 in0.0 mm 0.16 in4.1 mm
05:12 PM 77.9°F25.5°C 65.9°F18.8°C 66% 2.6 mph WSW4.2 kmh WSW 12.0 mph19.3 kmh 29.76 in1007.8 mb 0.00 in0.0 mm 0.00 in0.0 mm 0.16 in4.1 mm
05:17 PM 77.9°F25.5°C 65.9°F18.8°C 66% 2.9 mph WSW4.7 kmh WSW 12.0 mph19.3 kmh 29.76 in1007.8 mb 0.00 in0.0 mm 0.00 in0.0 mm 0.16 in4.1 mm
05:22 PM 78.3°F25.7°C 65.8°F18.8°C 65% 3.6 mph W5.8 kmh W 12.0 mph19.3 kmh 29.76 in1007.8 mb 0.00 in0.0 mm 0.00 in0.0 mm 0.16 in4.1 mm
05:27 PM 78.1°F25.6°C 65.6°F18.7°C 65% 3.2 mph W5.1 kmh W 12.0 mph19.3 kmh 29.76 in1007.8 mb 0.00 in0.0 mm 0.00 in0.0 mm 0.16 in4.1 mm
05:32 PM 77.9°F25.5°C 65.6°F18.7°C 66% 2.6 mph W4.2 kmh W 8.0 mph12.9 kmh 29.76 in1007.8 mb 0.00 in0.0 mm 0.00 in0.0 mm 0.16 in4.1 mm
05:37 PM 78.2°F25.7°C 65.3°F18.5°C 64% 3.9 mph W6.3 kmh W 10.0 mph16.1 kmh 29.76 in1007.8 mb 0.00 in0.0 mm 0.00 in0.0 mm 0.16 in4.1 mm
05:42 PM 78.4°F25.8°C 65.4°F18.6°C 64% 3.2 mph NW5.1 kmh NW 10.0 mph16.1 kmh 29.76 in1007.8 mb 0.00 in0.0 mm 0.00 in0.0 mm 0.16 in4.1 mm
05:47 PM 78.6°F25.9°C 65.6°F18.7°C 64% 3.6 mph W5.8 kmh W 10.0 mph16.1 kmh 29.76 in1007.8 mb 0.00 in0.0 mm 0.00 in0.0 mm 0.16 in4.1 mm
05:52 PM 78.6°F25.9°C 66.1°F18.9°C 65% 3.0 mph WNW4.8 kmh WNW 10.0 mph16.1 kmh 29.76 in1007.8 mb 0.00 in0.0 mm 0.00 in0.0 mm 0.16 in4.1 mm
05:57 PM 78.6°F25.9°C 65.2°F18.4°C 63% 4.2 mph WNW6.8 kmh WNW 10.0 mph16.1 kmh 29.76 in1007.8 mb 0.00 in0.0 mm 0.00 in0.0 mm 0.16 in4.1 mm
06:02 PM 78.9°F26.1°C 66.4°F19.1°C 65% 2.5 mph W4.0 kmh W 10.0 mph16.1 kmh 29.76 in1007.8 mb 0.00 in0.0 mm 0.00 in0.0 mm 0.16 in4.1 mm
06:07 PM 78.9°F26.1°C 65.7°F18.7°C 64% 2.9 mph W4.7 kmh W 10.0 mph16.1 kmh 29.76 in1007.8 mb 0.00 in0.0 mm 0.00 in0.0 mm 0.16 in4.1 mm
06:12 PM 78.7°F25.9°C 65.7°F18.7°C 64% 4.0 mph WNW6.4 kmh WNW 10.0 mph16.1 kmh 29.76 in1007.8 mb 0.00 in0.0 mm 0.00 in0.0 mm 0.16 in4.1 mm
06:17 PM 78.8°F26.0°C 65.4°F18.6°C 63% 4.2 mph WNW6.8 kmh WNW 10.0 mph16.1 kmh 29.76 in1007.8 mb 0.00 in0.0 mm 0.00 in0.0 mm 0.16 in4.1 mm
06:22 PM 78.3°F25.7°C 65.4°F18.6°C 64% 4.7 mph WNW7.6 kmh WNW 12.0 mph19.3 kmh 29.76 in1007.8 mb 0.00 in0.0 mm 0.00 in0.0 mm 0.16 in4.1 mm
06:27 PM 78.2°F25.7°C 64.6°F18.1°C 63% 4.1 mph WNW6.6 kmh WNW 12.0 mph19.3 kmh 29.76 in1007.8 mb 0.00 in0.0 mm 0.00 in0.0 mm 0.16 in4.1 mm
06:32 PM 78.4°F25.8°C 65.0°F18.3°C 63% 3.6 mph WNW5.8 kmh WNW 12.0 mph19.3 kmh 29.76 in1007.8 mb 0.00 in0.0 mm 0.00 in0.0 mm 0.16 in4.1 mm
06:37 PM 78.5°F25.8°C 65.5°F18.6°C 64% 3.2 mph W5.1 kmh W 12.0 mph19.3 kmh 29.77 in1008.1 mb 0.00 in0.0 mm 0.00 in0.0 mm 0.16 in4.1 mm
06:42 PM 78.6°F25.9°C 64.3°F17.9°C 61% 3.9 mph WNW6.3 kmh WNW 11.0 mph17.7 kmh 29.77 in1008.1 mb 0.00 in0.0 mm 0.00 in0.0 mm 0.16 in4.1 mm
06:47 PM 78.4°F25.8°C 64.1°F17.8°C 61% 3.6 mph NW5.8 kmh NW 11.0 mph17.7 kmh 29.77 in1008.1 mb 0.00 in0.0 mm 0.00 in0.0 mm 0.16 in4.1 mm
06:52 PM 78.2°F25.7°C 64.3°F17.9°C 62% 3.0 mph WNW4.8 kmh WNW 10.0 mph16.1 kmh 29.77 in1008.1 mb 0.00 in0.0 mm 0.00 in0.0 mm 0.16 in4.1 mm
06:57 PM 78.1°F25.6°C 64.0°F17.8°C 62% 4.0 mph WNW6.4 kmh WNW 10.0 mph16.1 kmh 29.77 in1008.1 mb 0.00 in0.0 mm 0.00 in0.0 mm 0.16 in4.1 mm
07:02 PM 77.9°F25.5°C 64.3°F17.9°C 63% 4.1 mph NW6.6 kmh NW 10.0 mph16.1 kmh 29.77 in1008.1 mb 0.00 in0.0 mm 0.00 in0.0 mm 0.16 in4.1 mm
07:07 PM 77.8°F25.4°C 63.7°F17.6°C 62% 4.5 mph WNW7.2 kmh WNW 10.0 mph16.1 kmh 29.77 in1008.1 mb 0.00 in0.0 mm 0.00 in0.0 mm 0.16 in4.1 mm
07:12 PM 77.8°F25.4°C 64.2°F17.9°C 63% 2.0 mph W3.2 kmh W 12.0 mph19.3 kmh 29.77 in1008.1 mb 0.00 in0.0 mm 0.00 in0.0 mm 0.16 in4.1 mm
07:17 PM 78.0°F25.6°C 64.2°F17.9°C 62% 4.3 mph WNW6.9 kmh WNW 12.0 mph19.3 kmh 29.77 in1008.1 mb 0.00 in0.0 mm 0.00 in0.0 mm 0.16 in4.1 mm
07:22 PM 77.8°F25.4°C 64.9°F18.3°C 64% 1.7 mph NW2.7 kmh NW 12.0 mph19.3 kmh 29.77 in1008.1 mb 0.00 in0.0 mm 0.00 in0.0 mm 0.16 in4.1 mm
07:27 PM 77.6°F25.3°C 64.2°F17.9°C 63% 4.8 mph WNW7.7 kmh WNW 9.0 mph14.5 kmh 29.77 in1008.1 mb 0.00 in0.0 mm 0.00 in0.0 mm 0.16 in4.1 mm
07:32 PM 77.5°F25.3°C 64.1°F17.8°C 63% 3.0 mph WNW4.8 kmh WNW 9.0 mph14.5 kmh 29.77 in1008.1 mb 0.00 in0.0 mm 0.00 in0.0 mm 0.16 in4.1 mm
07:37 PM 77.4°F25.2°C 64.0°F17.8°C 63% 2.9 mph WNW4.7 kmh WNW 9.0 mph14.5 kmh 29.77 in1008.1 mb 0.00 in0.0 mm 0.00 in0.0 mm 0.16 in4.1 mm
07:42 PM 77.2°F25.1°C 63.9°F17.7°C 63% 2.1 mph W3.4 kmh W 10.0 mph16.1 kmh 29.77 in1008.1 mb 0.00 in0.0 mm 0.00 in0.0 mm 0.16 in4.1 mm
07:47 PM 76.9°F24.9°C 63.8°F17.7°C 64% 2.8 mph W4.5 kmh W 10.0 mph16.1 kmh 29.78 in1008.5 mb 0.00 in0.0 mm 0.00 in0.0 mm 0.16 in4.1 mm
07:52 PM 76.6°F24.8°C 64.0°F17.8°C 65% 2.1 mph W3.4 kmh W 10.0 mph16.1 kmh 29.78 in1008.5 mb 0.00 in0.0 mm 0.00 in0.0 mm 0.16 in4.1 mm
07:57 PM 76.4°F24.7°C 63.3°F17.4°C 64% 3.8 mph WNW6.1 kmh WNW 8.0 mph12.9 kmh 29.78 in1008.5 mb 0.00 in0.0 mm 0.00 in0.0 mm 0.16 in4.1 mm
08:02 PM 76.1°F24.5°C 63.7°F17.6°C 65% 2.4 mph NW3.9 kmh NW 7.0 mph11.3 kmh 29.78 in1008.5 mb 0.00 in0.0 mm 0.00 in0.0 mm 0.16 in4.1 mm
08:07 PM 75.9°F24.4°C 63.9°F17.7°C 66% 2.5 mph WNW4.0 kmh WNW 7.0 mph11.3 kmh 29.79 in1008.8 mb 0.00 in0.0 mm 0.00 in0.0 mm 0.16 in4.1 mm
08:12 PM 75.6°F24.2°C 63.7°F17.6°C 66% 3.0 mph WNW4.8 kmh WNW 7.0 mph11.3 kmh 29.79 in1008.8 mb 0.00 in0.0 mm 0.00 in0.0 mm 0.16 in4.1 mm
08:17 PM 75.2°F24.0°C 63.7°F17.6°C 67% 3.1 mph WNW5.0 kmh WNW 7.0 mph11.3 kmh 29.80 in1009.1 mb 0.00 in0.0 mm 0.00 in0.0 mm 0.16 in4.1 mm
08:22 PM 74.8°F23.8°C 63.3°F17.4°C 67% 3.4 mph WNW5.5 kmh WNW 7.0 mph11.3 kmh 29.80 in1009.1 mb 0.00 in0.0 mm 0.00 in0.0 mm 0.16 in4.1 mm
08:27 PM 74.5°F23.6°C 63.5°F17.5°C 68% 2.1 mph NW3.4 kmh NW 7.0 mph11.3 kmh 29.80 in1009.1 mb 0.00 in0.0 mm 0.00 in0.0 mm 0.16 in4.1 mm
08:32 PM 74.1°F23.4°C 63.5°F17.5°C 69% 1.3 mph NW2.1 kmh NW 6.0 mph9.7 kmh 29.80 in1009.1 mb 0.00 in0.0 mm 0.00 in0.0 mm 0.16 in4.1 mm
08:37 PM 73.9°F23.3°C 63.7°F17.6°C 70% 2.5 mph WNW4.0 kmh WNW 8.0 mph12.9 kmh 29.81 in1009.5 mb 0.00 in0.0 mm 0.00 in0.0 mm 0.16 in4.1 mm
08:42 PM 73.6°F23.1°C 63.4°F17.4°C 70% 2.6 mph W4.2 kmh W 8.0 mph12.9 kmh 29.81 in1009.5 mb 0.00 in0.0 mm 0.00 in0.0 mm 0.16 in4.1 mm
08:47 PM 73.3°F22.9°C 63.5°F17.5°C 71% 2.3 mph WNW3.7 kmh WNW 8.0 mph12.9 kmh 29.81 in1009.5 mb 0.00 in0.0 mm 0.00 in0.0 mm 0.16 in4.1 mm
08:52 PM 73.1°F22.8°C 63.1°F17.3°C 71% 1.7 mph WNW2.7 kmh WNW 8.0 mph12.9 kmh 29.81 in1009.5 mb 0.00 in0.0 mm 0.00 in0.0 mm 0.16 in4.1 mm
08:57 PM 72.7°F22.6°C 62.9°F17.2°C 71% 2.5 mph WNW4.0 kmh WNW 7.0 mph11.3 kmh 29.82 in1009.8 mb 0.00 in0.0 mm 0.00 in0.0 mm 0.16 in4.1 mm
09:02 PM 72.4°F22.4°C 62.6°F17.0°C 71% 4.2 mph WNW6.8 kmh WNW 9.0 mph14.5 kmh 29.82 in1009.8 mb 0.00 in0.0 mm 0.00 in0.0 mm 0.16 in4.1 mm
09:07 PM 72.3°F22.4°C 62.5°F16.9°C 71% 2.5 mph NW4.0 kmh NW 9.0 mph14.5 kmh 29.82 in1009.8 mb 0.00 in0.0 mm 0.00 in0.0 mm 0.16 in4.1 mm
09:12 PM 72.1°F22.3°C 62.2°F16.8°C 71% 3.2 mph WNW5.1 kmh WNW 9.0 mph14.5 kmh 29.82 in1009.8 mb 0.00 in0.0 mm 0.00 in0.0 mm 0.16 in4.1 mm
09:17 PM 71.8°F22.1°C 62.3°F16.8°C 72% 2.2 mph W3.5 kmh W 9.0 mph14.5 kmh 29.83 in1010.2 mb 0.00 in0.0 mm 0.00 in0.0 mm 0.16 in4.1 mm
09:22 PM 71.6°F22.0°C 62.3°F16.8°C 72% 3.3 mph WNW5.3 kmh WNW 7.0 mph11.3 kmh 29.83 in1010.2 mb 0.00 in0.0 mm 0.00 in0.0 mm 0.16 in4.1 mm
09:27 PM 71.5°F21.9°C 62.2°F16.8°C 72% 3.2 mph WNW5.1 kmh WNW 7.0 mph11.3 kmh 29.83 in1010.2 mb 0.00 in0.0 mm 0.00 in0.0 mm 0.16 in4.1 mm
09:32 PM 71.2°F21.8°C 61.9°F16.6°C 72% 3.1 mph WNW5.0 kmh WNW 7.0 mph11.3 kmh 29.84 in1010.5 mb 0.00 in0.0 mm 0.00 in0.0 mm 0.16 in4.1 mm
09:37 PM 71.1°F21.7°C 62.2°F16.8°C 73% 2.3 mph WNW3.7 kmh WNW 7.0 mph11.3 kmh 29.84 in1010.5 mb 0.00 in0.0 mm 0.00 in0.0 mm 0.16 in4.1 mm
09:42 PM 70.9°F21.6°C 62.0°F16.7°C 73% 2.1 mph W3.4 kmh W 7.0 mph11.3 kmh 29.84 in1010.5 mb 0.00 in0.0 mm 0.00 in0.0 mm 0.16 in4.1 mm
09:47 PM 70.9°F21.6°C 62.0°F16.7°C 73% 1.7 mph WNW2.7 kmh WNW 7.0 mph11.3 kmh 29.84 in1010.5 mb 0.00 in0.0 mm 0.00 in0.0 mm 0.16 in4.1 mm
09:52 PM 70.6°F21.4°C 61.7°F16.5°C 73% 2.7 mph NW4.3 kmh NW 7.0 mph11.3 kmh 29.84 in1010.5 mb 0.00 in0.0 mm 0.00 in0.0 mm 0.16 in4.1 mm
09:57 PM 70.5°F21.4°C 61.6°F16.4°C 73% 2.4 mph WNW3.9 kmh WNW 7.0 mph11.3 kmh 29.85 in1010.8 mb 0.00 in0.0 mm 0.00 in0.0 mm 0.16 in4.1 mm
10:02 PM 70.4°F21.3°C 61.5°F16.4°C 73% 2.7 mph NW4.3 kmh NW 7.0 mph11.3 kmh 29.85 in1010.8 mb 0.00 in0.0 mm 0.00 in0.0 mm 0.16 in4.1 mm
10:07 PM 70.3°F21.3°C 61.2°F16.2°C 73% 2.5 mph WNW4.0 kmh WNW 6.0 mph9.7 kmh 29.85 in1010.8 mb 0.00 in0.0 mm 0.00 in0.0 mm 0.16 in4.1 mm
10:12 PM 70.2°F21.2°C 61.1°F16.2°C 73% 3.4 mph WNW5.5 kmh WNW 6.0 mph9.7 kmh 29.85 in1010.8 mb 0.00 in0.0 mm 0.00 in0.0 mm 0.16 in4.1 mm
10:17 PM 70.1°F21.2°C 61.2°F16.2°C 73% 2.1 mph WNW3.4 kmh WNW 6.0 mph9.7 kmh 29.85 in1010.8 mb 0.00 in0.0 mm 0.00 in0.0 mm 0.16 in4.1 mm
10:22 PM 70.0°F21.1°C 61.1°F16.2°C 73% 2.4 mph WNW3.9 kmh WNW 6.0 mph9.7 kmh 29.85 in1010.8 mb 0.00 in0.0 mm 0.00 in0.0 mm 0.16 in4.1 mm
10:27 PM 69.8°F21.0°C 61.3°F16.3°C 74% 2.4 mph NW3.9 kmh NW 6.0 mph9.7 kmh 29.85 in1010.8 mb 0.00 in0.0 mm 0.00 in0.0 mm 0.16 in4.1 mm
10:32 PM 69.6°F20.9°C 61.1°F16.2°C 74% 1.7 mph WNW2.7 kmh WNW 6.0 mph9.7 kmh 29.85 in1010.8 mb 0.00 in0.0 mm 0.00 in0.0 mm 0.16 in4.1 mm
10:37 PM 69.4°F20.8°C 60.9°F16.1°C 74% 2.6 mph WNW4.2 kmh WNW 6.0 mph9.7 kmh 29.85 in1010.8 mb 0.00 in0.0 mm 0.00 in0.0 mm 0.16 in4.1 mm
10:42 PM 69.3°F20.7°C 61.2°F16.2°C 75% 2.4 mph WNW3.9 kmh WNW 7.0 mph11.3 kmh 29.85 in1010.8 mb 0.00 in0.0 mm 0.00 in0.0 mm 0.16 in4.1 mm
10:47 PM 69.1°F20.6°C 61.0°F16.1°C 75% 2.2 mph WNW3.5 kmh WNW 7.0 mph11.3 kmh 29.86 in1011.2 mb 0.00 in0.0 mm 0.00 in0.0 mm 0.16 in4.1 mm
10:52 PM 68.9°F20.5°C 61.1°F16.2°C 76% 1.6 mph WNW2.6 kmh WNW 7.0 mph11.3 kmh 29.85 in1010.8 mb 0.00 in0.0 mm 0.00 in0.0 mm 0.16 in4.1 mm
10:57 PM 68.6°F20.3°C 60.9°F16.1°C 76% 2.3 mph WNW3.7 kmh WNW 7.0 mph11.3 kmh 29.86 in1011.2 mb 0.00 in0.0 mm 0.00 in0.0 mm 0.16 in4.1 mm
11:01 PM 68.5°F20.3°C 61.1°F16.2°C 77% 3.2 mph NW5.1 kmh NW 6.0 mph9.7 kmh 29.86 in1011.2 mb 0.00 in0.0 mm 0.00 in0.0 mm 0.16 in4.1 mm
11:06 PM 68.4°F20.2°C 61.0°F16.1°C 77% 2.2 mph WNW3.5 kmh WNW 6.0 mph9.7 kmh 29.86 in1011.2 mb 0.00 in0.0 mm 0.00 in0.0 mm 0.16 in4.1 mm
11:11 PM 68.2°F20.1°C 60.8°F16.0°C 77% 1.5 mph W2.4 kmh W 6.0 mph9.7 kmh 29.86 in1011.2 mb 0.00 in0.0 mm 0.00 in0.0 mm 0.16 in4.1 mm
11:16 PM 68.0°F20.0°C 61.0°F16.1°C 78% 1.5 mph WNW2.4 kmh WNW 6.0 mph9.7 kmh 29.87 in1011.5 mb 0.00 in0.0 mm 0.00 in0.0 mm 0.16 in4.1 mm
11:21 PM 67.7°F19.8°C 61.0°F16.1°C 79% 2.5 mph WNW4.0 kmh WNW 6.0 mph9.7 kmh 29.87 in1011.5 mb 0.00 in0.0 mm 0.00 in0.0 mm 0.16 in4.1 mm
11:26 PM 67.5°F19.7°C 60.8°F16.0°C 79% 2.3 mph W3.7 kmh W 6.0 mph9.7 kmh 29.87 in1011.5 mb 0.00 in0.0 mm 0.00 in0.0 mm 0.16 in4.1 mm
11:31 PM 67.4°F19.7°C 60.7°F15.9°C 79% 1.7 mph NW2.7 kmh NW 6.0 mph9.7 kmh 29.87 in1011.5 mb 0.00 in0.0 mm 0.00 in0.0 mm 0.16 in4.1 mm
11:36 PM 67.3°F19.6°C 60.6°F15.9°C 79% 2.2 mph WNW3.5 kmh WNW 6.0 mph9.7 kmh 29.87 in1011.5 mb 0.00 in0.0 mm 0.00 in0.0 mm 0.16 in4.1 mm
11:41 PM 67.1°F19.5°C 60.8°F16.0°C 80% 1.7 mph WNW2.7 kmh WNW 6.0 mph9.7 kmh 29.87 in1011.5 mb 0.00 in0.0 mm 0.00 in0.0 mm 0.16 in4.1 mm
11:46 PM 67.0°F19.4°C 60.7°F15.9°C 80% 2.2 mph NW3.5 kmh NW 7.0 mph11.3 kmh 29.88 in1011.9 mb 0.00 in0.0 mm 0.00 in0.0 mm 0.16 in4.1 mm
11:51 PM 66.8°F19.3°C 60.5°F15.8°C 80% 1.8 mph NW2.9 kmh NW 7.0 mph11.3 kmh 29.88 in1011.9 mb 0.00 in0.0 mm 0.00 in0.0 mm 0.16 in4.1 mm
11:56 PM 66.6°F19.2°C 60.3°F15.7°C 80% 2.3 mph WNW3.7 kmh WNW 7.0 mph11.3 kmh 29.88 in1011.9 mb 0.00 in0.0 mm 0.00 in0.0 mm 0.16 in4.1 mm